Anaheim, California
Current Conditions -  °F | °C
As of 4:53 AM on Friday 24 Oct 2014 (Local Time) from KFUL Reporting Station
NA  
Wind Chill: 60°   Ceiling: NA
Heat Index: 60°   Visibility: 10mi
Dew Point: 51°   Wind: 0mph
Humidity: 72%   Direction: NA
Pressure: 29.94"   Gusts: NA
Location:  33.83°N, 117.91°W
Report Text: KFUL 241153Z 00000KT 10SM 16/11 A2994 RMK AO2 SLP138 T01560106 10200 20156 55005 $
Loading
Personal Weather Stations






























Interactive Weather Map
Tropical Storm Tracking
New forecast layout! Learn more

10-Day Weather Forecast

Advertisements
Track Severe Weather on mobile